createdAt,value
2023-04-01T00:01:55.850Z,12
2023-04-01T00:04:26.563Z,8
2023-04-01T00:06:57.004Z,11
2023-04-01T00:09:29.917Z,8
2023-04-01T00:11:58.571Z,8
2023-04-01T00:14:29.070Z,12
2023-04-01T00:16:59.697Z,12
2023-04-01T00:19:30.072Z,12
2023-04-01T00:22:00.479Z,8
2023-04-01T00:24:30.781Z,12
2023-04-01T00:27:01.093Z,8
2023-04-01T00:29:31.165Z,10
2023-04-01T00:32:01.844Z,12
2023-04-01T00:34:32.540Z,8
2023-04-01T00:37:03.009Z,8
2023-04-01T00:39:33.885Z,8
2023-04-01T00:42:04.789Z,11
2023-04-01T00:44:36.158Z,10
2023-04-01T00:47:07.140Z,8
2023-04-01T00:49:38.006Z,8
2023-04-01T00:52:09.493Z,8
2023-04-01T00:54:40.099Z,8
2023-04-01T00:57:10.510Z,8
2023-04-01T00:59:41.189Z,8
2023-04-01T01:02:11.882Z,11
2023-04-01T01:04:42.323Z,8
2023-04-01T01:07:13.308Z,8
2023-04-01T01:09:44.477Z,8
2023-04-01T01:12:15.131Z,8
2023-04-01T01:14:45.951Z,8
2023-04-01T01:17:16.825Z,8
2023-04-01T01:19:47.550Z,8
2023-04-01T01:22:18.433Z,7
2023-04-01T01:24:49.382Z,8
2023-04-01T01:27:20.061Z,4
2023-04-01T01:29:50.390Z,8
2023-04-01T01:32:20.967Z,8
2023-04-01T01:34:51.522Z,8
2023-04-01T01:37:22.740Z,8
2023-04-01T01:39:53.839Z,8
2023-04-01T01:42:24.798Z,4
2023-04-01T01:44:55.845Z,4
2023-04-01T01:47:26.477Z,8
2023-04-01T01:49:57.073Z,8
2023-04-01T01:52:27.382Z,4
2023-04-01T01:54:58.103Z,8
2023-04-01T01:57:28.845Z,8
2023-04-01T01:59:59.358Z,4
2023-04-01T02:02:30.133Z,8
2023-04-01T02:05:00.676Z,8
2023-04-01T02:07:31.799Z,8
2023-04-01T02:10:02.276Z,7
2023-04-01T02:12:32.846Z,6
2023-04-01T02:15:03.569Z,8
2023-04-01T02:17:34.377Z,4
2023-04-01T02:20:05.223Z,8
2023-04-01T02:22:36.404Z,8
2023-04-01T02:25:06.594Z,8
2023-04-01T02:27:37.578Z,8
2023-04-01T02:30:08.477Z,8
2023-04-01T02:32:39.129Z,8
2023-04-01T02:35:09.838Z,8
2023-04-01T02:37:40.773Z,8
2023-04-01T02:40:11.404Z,8
2023-04-01T02:42:42.387Z,8
2023-04-01T02:45:13.567Z,8
2023-04-01T02:47:44.706Z,8
2023-04-01T02:50:15.856Z,8
2023-04-01T02:52:46.566Z,9
2023-04-01T02:55:17.809Z,12
2023-04-01T02:57:48.470Z,12
2023-04-01T03:00:19.369Z,12
2023-04-01T03:02:49.843Z,12
2023-04-01T03:05:20.849Z,11
2023-04-01T03:07:51.315Z,9
2023-04-01T03:10:22.654Z,12
2023-04-01T03:12:53.648Z,12
2023-04-01T03:15:24.322Z,12
2023-04-01T03:17:54.987Z,12
2023-04-01T03:20:25.721Z,12
2023-04-01T03:22:56.307Z,12
2023-04-01T03:25:27.643Z,12
2023-04-01T03:27:58.121Z,12
2023-04-01T03:30:29.156Z,12
2023-04-01T03:32:59.989Z,12
2023-04-01T03:35:30.968Z,12
2023-04-01T03:38:01.497Z,12
2023-04-01T03:40:32.207Z,12
2023-04-01T03:43:03.883Z,12
2023-04-01T03:45:34.972Z,12
2023-04-01T03:48:05.406Z,12
2023-04-01T03:50:36.349Z,12
2023-04-01T03:53:06.733Z,13
2023-04-01T03:55:37.451Z,13
2023-04-01T03:58:08.310Z,12
2023-04-01T04:00:39.342Z,12
2023-04-01T04:03:09.808Z,12
2023-04-01T04:05:40.635Z,13
2023-04-01T04:08:11.855Z,12
2023-04-01T04:10:42.804Z,16
2023-04-01T04:13:13.849Z,16
2023-04-01T04:15:44.854Z,14
2023-04-01T04:18:15.883Z,16
2023-04-01T04:20:46.509Z,16
2023-04-01T04:23:16.908Z,16
2023-04-01T04:25:47.796Z,13
2023-04-01T04:28:18.265Z,16
2023-04-01T04:30:48.951Z,20
2023-04-01T04:33:19.972Z,20
2023-04-01T04:35:50.646Z,16
2023-04-01T04:38:20.984Z,16
2023-04-01T04:40:51.435Z,16
2023-04-01T04:43:22.576Z,16
2023-04-01T04:45:52.950Z,16
2023-04-01T04:48:23.676Z,16
2023-04-01T04:50:54.964Z,16
2023-04-01T04:53:25.562Z,27
2023-04-01T04:55:56.138Z,24
2023-04-01T04:58:26.351Z,16
2023-04-01T05:00:56.973Z,12
2023-04-01T05:03:27.582Z,16
2023-04-01T05:05:58.247Z,15
2023-04-01T05:08:28.903Z,16
2023-04-01T05:10:59.604Z,12
2023-04-01T05:13:32.231Z,14
2023-04-01T05:16:02.672Z,12
2023-04-01T05:18:33.108Z,12
2023-04-01T05:21:04.378Z,12
2023-04-01T05:23:35.021Z,13
2023-04-01T05:26:05.402Z,12
2023-04-01T05:28:36.042Z,12
2023-04-01T05:31:06.936Z,16
2023-04-01T05:33:37.930Z,12
2023-04-01T05:36:09.087Z,16
2023-04-01T05:38:39.585Z,16
2023-04-01T05:41:10.050Z,16
2023-04-01T05:43:41.094Z,17
2023-04-01T05:46:11.637Z,17
2023-04-01T05:48:42.542Z,16
2023-04-01T05:51:13.305Z,16
2023-04-01T05:53:43.667Z,20
2023-04-01T05:56:14.416Z,20
2023-04-01T05:58:45.017Z,24
2023-04-01T06:01:16.619Z,23
2023-04-01T06:03:46.638Z,24
2023-04-01T06:06:17.365Z,24
2023-04-01T06:08:48.007Z,24
2023-04-01T06:11:18.588Z,24
2023-04-01T06:13:49.784Z,24
2023-04-01T06:16:20.415Z,21
2023-04-01T06:18:50.871Z,20
2023-04-01T06:21:21.158Z,28
2023-04-01T06:23:51.930Z,21
2023-04-01T06:26:22.653Z,23
2023-04-01T06:28:52.763Z,20
2023-04-01T06:31:23.620Z,20
2023-04-01T06:33:54.077Z,21
2023-04-01T06:36:26.547Z,20
2023-04-01T06:38:57.098Z,20
2023-04-01T06:41:27.780Z,22
2023-04-01T06:43:58.892Z,16
2023-04-01T06:46:29.118Z,20
2023-04-01T06:48:59.282Z,20
2023-04-01T06:51:29.620Z,21
2023-04-01T06:54:00.058Z,20
2023-04-01T06:56:30.486Z,20
2023-04-01T06:59:01.264Z,17
2023-04-01T07:01:32.331Z,23
2023-04-01T07:04:02.679Z,20
2023-04-01T07:06:33.354Z,20
2023-04-01T07:09:05.594Z,28
2023-04-01T07:11:34.439Z,20
2023-04-01T07:14:06.295Z,20
2023-04-01T07:16:36.506Z,21
2023-04-01T07:19:07.446Z,20
2023-04-01T07:21:38.008Z,20
2023-04-01T07:24:08.264Z,24
2023-04-01T07:26:39.089Z,20
2023-04-01T07:29:10.268Z,24
2023-04-01T07:31:40.854Z,24
2023-04-01T07:34:12.346Z,26
2023-04-01T07:36:42.595Z,20
2023-04-01T07:39:13.163Z,24
2023-04-01T07:41:43.518Z,19
2023-04-01T07:44:13.975Z,20
2023-04-01T07:46:44.592Z,20
2023-04-01T07:49:15.114Z,24
2023-04-01T07:51:45.446Z,17
2023-04-01T07:54:16.107Z,20
2023-04-01T07:56:46.753Z,24
2023-04-01T07:59:15.540Z,20
2023-04-01T08:01:45.763Z,20
2023-04-01T08:04:16.297Z,16
2023-04-01T08:06:47.126Z,18
2023-04-01T08:09:17.498Z,20
2023-04-01T08:11:48.221Z,20
2023-04-01T08:14:18.368Z,20
2023-04-01T08:16:49.076Z,20
2023-04-01T08:19:19.549Z,20
2023-04-01T08:21:49.493Z,20
2023-04-01T08:24:21.483Z,24
2023-04-01T08:26:50.051Z,22
2023-04-01T08:29:20.267Z,20
2023-04-01T08:31:50.731Z,20
2023-04-01T08:34:20.703Z,12
2023-04-01T08:36:51.259Z,19
2023-04-01T08:39:21.743Z,16
2023-04-01T08:41:51.789Z,18
2023-04-01T08:44:22.422Z,12
2023-04-01T08:46:52.555Z,16
2023-04-01T08:49:23.054Z,44
2023-04-01T08:51:53.374Z,28
2023-04-01T08:54:23.819Z,28
2023-04-01T08:56:54.134Z,24
2023-04-01T08:59:24.173Z,21
2023-04-01T09:01:54.449Z,20
2023-04-01T09:04:24.640Z,24
2023-04-01T09:06:55.054Z,22
2023-04-01T09:09:25.273Z,20
2023-04-01T09:11:55.219Z,20
2023-04-01T09:14:25.180Z,20
2023-04-01T09:16:55.178Z,24
2023-04-01T09:19:28.723Z,21
2023-04-01T09:21:59.017Z,24
2023-04-01T09:24:29.180Z,22
2023-04-01T09:26:59.804Z,24
2023-04-01T09:29:29.182Z,24
2023-04-01T09:31:59.378Z,27
2023-04-01T09:34:30.299Z,29
2023-04-01T09:37:00.526Z,38
2023-04-01T09:39:30.335Z,26
2023-04-01T09:42:00.719Z,28
2023-04-01T09:44:31.512Z,39
2023-04-01T09:47:04.096Z,28
2023-04-01T09:49:34.356Z,25
2023-04-01T09:52:05.041Z,28
2023-04-01T09:54:37.716Z,28
2023-04-01T09:57:07.906Z,28
2023-04-01T09:59:38.086Z,24
2023-04-01T10:02:08.211Z,12
2023-04-01T10:04:42.779Z,12
2023-04-01T10:07:12.697Z,11
2023-04-01T10:09:42.748Z,4
2023-04-01T10:12:13.037Z,4
2023-04-01T10:14:42.917Z,4
2023-04-01T10:17:12.871Z,7
2023-04-01T10:19:44.240Z,8
2023-04-01T10:22:16.575Z,4
2023-04-01T10:24:46.595Z,4
2023-04-01T10:27:16.705Z,4
2023-04-01T10:29:46.761Z,4
2023-04-01T10:32:16.775Z,4
2023-04-01T10:34:46.575Z,4
2023-04-01T10:37:16.971Z,4
2023-04-01T10:39:48.183Z,7
2023-04-01T10:42:22.281Z,4
2023-04-01T10:44:52.565Z,4
2023-04-01T10:47:22.588Z,4
2023-04-01T10:49:52.853Z,4
2023-04-01T10:52:23.115Z,8
2023-04-01T10:54:53.304Z,8
2023-04-01T10:57:23.513Z,5
2023-04-01T10:59:53.532Z,8
2023-04-01T11:02:24.807Z,8
2023-04-01T11:04:54.749Z,8
2023-04-01T11:07:24.956Z,5
2023-04-01T11:09:55.232Z,8
2023-04-01T11:12:25.425Z,8
2023-04-01T11:14:55.309Z,7
2023-04-01T11:17:25.448Z,4
2023-04-01T11:19:55.411Z,4
2023-04-01T11:22:25.838Z,1
2023-04-01T11:24:55.662Z,4
2023-04-01T11:27:25.736Z,4
2023-04-01T11:29:59.993Z,7
2023-04-01T11:32:25.615Z,4
2023-04-01T11:34:55.813Z,4
2023-04-01T11:37:26.077Z,7
2023-04-01T11:39:57.097Z,4
2023-04-01T11:42:26.279Z,8
2023-04-01T11:44:56.921Z,8
2023-04-01T11:47:27.242Z,8
2023-04-01T11:49:57.432Z,6
2023-04-01T11:52:27.608Z,4
2023-04-01T11:54:58.055Z,8
2023-04-01T11:57:29.253Z,8
2023-04-01T11:59:59.374Z,4
2023-04-01T12:02:29.715Z,4
2023-04-01T12:04:59.829Z,8
2023-04-01T12:07:29.854Z,8
2023-04-01T12:10:00.092Z,7
2023-04-01T12:12:30.026Z,8
2023-04-01T12:15:00.651Z,8
2023-04-01T12:17:30.800Z,8
2023-04-01T12:20:00.839Z,8
2023-04-01T12:22:32.593Z,8
2023-04-01T12:25:00.800Z,8
2023-04-01T12:27:29.340Z,17
2023-04-01T12:29:59.219Z,12
2023-04-01T12:32:29.247Z,12
2023-04-01T12:34:59.456Z,12
2023-04-01T12:37:29.673Z,12
2023-04-01T12:39:59.769Z,8
2023-04-01T12:42:29.857Z,12
2023-04-01T12:44:59.666Z,12
2023-04-01T12:47:29.906Z,5
2023-04-01T12:49:59.925Z,12
2023-04-01T12:52:29.780Z,8
2023-04-01T12:55:00.980Z,8
2023-04-01T12:57:29.769Z,10
2023-04-01T12:59:59.896Z,12
2023-04-01T13:02:29.826Z,16
2023-04-01T13:05:02.814Z,8
2023-04-01T13:07:32.977Z,12
2023-04-01T13:10:03.003Z,12
2023-04-01T13:12:33.012Z,7
2023-04-01T13:15:04.995Z,7
2023-04-01T13:17:33.341Z,12
2023-04-01T13:20:05.932Z,8
2023-04-01T13:22:33.559Z,8
2023-04-01T13:25:03.449Z,8
2023-04-01T13:27:33.996Z,4
2023-04-01T13:30:04.188Z,8
2023-04-01T13:32:43.148Z,8
2023-04-01T13:35:05.071Z,11
2023-04-01T13:37:36.281Z,8
2023-04-01T13:40:05.982Z,8
2023-04-01T13:42:36.583Z,8
2023-04-01T13:45:06.604Z,4
2023-04-01T13:47:37.389Z,4
2023-04-01T13:50:07.857Z,4
2023-04-01T13:52:37.821Z,4
2023-04-01T13:55:07.988Z,11
2023-04-01T13:57:38.214Z,8
2023-04-01T14:00:08.245Z,4
2023-04-01T14:02:38.406Z,4
2023-04-01T14:05:08.249Z,8
2023-04-01T14:07:38.800Z,5
2023-04-01T14:10:07.462Z,7
2023-04-01T14:12:37.498Z,4
2023-04-01T14:15:07.491Z,7
2023-04-01T14:17:37.591Z,4
2023-04-01T14:20:07.632Z,8
2023-04-01T14:22:38.109Z,8
2023-04-01T14:25:08.186Z,8
2023-04-01T14:27:38.658Z,8
2023-04-01T14:30:09.139Z,8
2023-04-01T14:32:39.232Z,4
2023-04-01T14:35:09.527Z,12
2023-04-01T14:37:39.761Z,9
2023-04-01T14:40:09.909Z,4
2023-04-01T14:42:40.162Z,8
2023-04-01T14:45:10.488Z,4
2023-04-01T14:47:40.765Z,11
2023-04-01T14:50:11.377Z,8
2023-04-01T14:52:41.415Z,7
2023-04-01T14:55:10.729Z,8
2023-04-01T14:57:41.181Z,8
2023-04-01T15:00:09.588Z,8
2023-04-01T15:02:38.424Z,7
2023-04-01T15:05:08.370Z,8
2023-04-01T15:07:38.964Z,8
2023-04-01T15:10:09.646Z,8
2023-04-01T15:12:40.321Z,8
2023-04-01T15:15:10.901Z,8
2023-04-01T15:17:42.346Z,12
2023-04-01T15:20:12.621Z,8
2023-04-01T15:22:42.961Z,12
2023-04-01T15:25:13.027Z,8
2023-04-01T15:27:43.616Z,26
2023-04-01T15:30:17.093Z,20
2023-04-01T15:32:47.200Z,20
2023-04-01T15:35:17.232Z,8
2023-04-01T15:37:45.877Z,12
2023-04-01T15:40:16.493Z,12
2023-04-01T15:42:46.886Z,16
2023-04-01T15:45:16.776Z,12
2023-04-01T15:47:46.720Z,12
2023-04-01T15:50:18.302Z,16
2023-04-01T15:52:48.293Z,20
2023-04-01T15:55:18.722Z,16
2023-04-01T15:57:48.658Z,12
2023-04-01T16:00:19.903Z,12
2023-04-01T16:02:50.256Z,12
2023-04-01T16:05:20.328Z,13
2023-04-01T16:07:50.349Z,16
2023-04-01T16:10:20.405Z,20
2023-04-01T16:12:50.592Z,20
2023-04-01T16:15:20.935Z,14
2023-04-01T16:17:51.121Z,12
2023-04-01T16:20:21.147Z,12
2023-04-01T16:22:51.114Z,19
2023-04-01T16:25:20.985Z,21
2023-04-01T16:27:52.110Z,12
2023-04-01T16:30:21.648Z,15
2023-04-01T16:32:51.870Z,12
2023-04-01T16:35:21.733Z,12
2023-04-01T16:37:51.678Z,8
2023-04-01T16:40:21.775Z,12
2023-04-01T16:42:51.832Z,16
2023-04-01T16:45:24.066Z,12
2023-04-01T16:47:54.588Z,12
2023-04-01T16:50:26.695Z,12
2023-04-01T16:52:56.890Z,10
2023-04-01T16:55:26.864Z,8
2023-04-01T16:57:57.203Z,12
2023-04-01T17:00:27.245Z,16
2023-04-01T17:02:57.242Z,8
2023-04-01T17:05:27.861Z,12
2023-04-01T17:07:59.981Z,12
2023-04-01T17:10:29.773Z,8
2023-04-01T17:13:00.425Z,8
2023-04-01T17:15:30.829Z,12
2023-04-01T17:17:59.250Z,15
2023-04-01T17:20:29.312Z,20
2023-04-01T17:22:59.750Z,16
2023-04-01T17:25:29.523Z,20
2023-04-01T17:27:59.685Z,23
2023-04-01T17:30:29.920Z,20
2023-04-01T17:33:00.271Z,20
2023-04-01T17:35:28.779Z,22
2023-04-01T17:37:58.864Z,23
2023-04-01T17:40:28.902Z,20
2023-04-01T17:42:59.053Z,20
2023-04-01T17:45:29.093Z,22
2023-04-01T17:47:59.312Z,20
2023-04-01T17:50:29.448Z,20
2023-04-01T17:52:59.402Z,23
2023-04-01T17:55:30.100Z,24
2023-04-01T17:58:00.223Z,24
2023-04-01T18:00:38.621Z,23
2023-04-01T18:03:00.733Z,24
2023-04-01T18:05:30.495Z,24
2023-04-01T18:08:00.257Z,23
2023-04-01T18:10:30.187Z,20
2023-04-01T18:13:00.132Z,24
2023-04-01T18:15:30.154Z,24
2023-04-01T18:18:00.178Z,24
2023-04-01T18:20:32.552Z,28
2023-04-01T18:23:06.658Z,28
2023-04-01T18:25:37.712Z,25
2023-04-01T18:28:07.596Z,24
2023-04-01T18:30:38.016Z,28
2023-04-01T18:35:43.217Z,24
2023-04-01T18:38:13.230Z,24
2023-04-01T18:40:43.344Z,24
2023-04-01T18:43:13.915Z,28
2023-04-01T18:45:43.927Z,28
2023-04-01T18:48:14.263Z,28
2023-04-01T18:50:44.299Z,28
2023-04-01T18:53:14.563Z,28
2023-04-01T18:55:44.732Z,29
2023-04-01T18:58:15.104Z,29
2023-04-01T19:00:45.158Z,28
2023-04-01T19:03:15.181Z,27
2023-04-01T19:05:46.088Z,24
2023-04-01T19:08:16.108Z,24
2023-04-01T19:10:46.216Z,23
2023-04-01T19:13:16.567Z,23
2023-04-01T19:15:46.877Z,24
2023-04-01T19:18:16.824Z,24
2023-04-01T19:20:46.921Z,20
2023-04-01T19:23:15.176Z,20
2023-04-01T19:25:46.491Z,24
2023-04-01T19:28:17.790Z,20
2023-04-01T19:30:48.107Z,23
2023-04-01T19:33:17.898Z,23
2023-04-01T19:35:47.893Z,20
2023-04-01T19:38:18.085Z,20
2023-04-01T19:40:50.066Z,17
2023-04-01T19:43:22.876Z,21
2023-04-01T19:45:52.747Z,22
2023-04-01T19:48:22.131Z,20
2023-04-01T19:50:52.143Z,24
2023-04-01T19:53:23.147Z,20
2023-04-01T19:55:54.439Z,24
2023-04-01T19:58:26.893Z,22
2023-04-01T20:00:56.821Z,24
2023-04-01T20:03:27.144Z,24
2023-04-01T20:05:57.690Z,23
2023-04-01T20:08:28.138Z,20
2023-04-01T20:10:58.187Z,20
2023-04-01T20:13:28.720Z,22
2023-04-01T20:15:59.142Z,22
2023-04-01T20:18:29.206Z,20
2023-04-01T20:20:59.867Z,20
2023-04-01T20:23:29.886Z,20
2023-04-01T20:25:59.835Z,20
2023-04-01T20:28:30.162Z,20
2023-04-01T20:31:01.097Z,20
2023-04-01T20:33:31.043Z,20
2023-04-01T20:36:01.687Z,20
2023-04-01T20:38:31.982Z,17
2023-04-01T20:41:02.132Z,19
2023-04-01T20:43:32.387Z,16
2023-04-01T20:46:02.553Z,19
2023-04-01T20:48:33.093Z,16
2023-04-01T20:51:02.074Z,20
2023-04-01T20:53:32.104Z,16
2023-04-01T20:56:02.552Z,16
2023-04-01T20:58:32.968Z,16
2023-04-01T21:01:03.590Z,16
2023-04-01T21:03:33.841Z,20
2023-04-01T21:06:04.108Z,16
2023-04-01T21:08:34.413Z,12
2023-04-01T21:11:04.528Z,16
2023-04-01T21:13:34.388Z,16
2023-04-01T21:16:03.235Z,16
2023-04-01T21:18:34.279Z,16
2023-04-01T21:21:05.225Z,16
2023-04-01T21:23:35.473Z,19
2023-04-01T21:26:05.613Z,16
2023-04-01T21:28:35.649Z,21
2023-04-01T21:31:06.243Z,20
2023-04-01T21:33:36.107Z,24
2023-04-01T21:36:08.286Z,23
2023-04-01T21:38:41.916Z,18
2023-04-01T21:41:13.226Z,23
2023-04-01T21:43:43.218Z,24
2023-04-01T21:46:15.388Z,24
2023-04-01T21:48:45.617Z,24
2023-04-01T21:51:16.636Z,24
2023-04-01T21:53:46.878Z,20
2023-04-01T21:56:18.186Z,20
2023-04-01T21:58:48.732Z,20
2023-04-01T22:01:19.075Z,21
2023-04-01T22:03:49.062Z,24
2023-04-01T22:06:19.300Z,24
2023-04-01T22:08:51.909Z,24
2023-04-01T22:11:22.627Z,24
2023-04-01T22:13:53.003Z,20
2023-04-01T22:16:23.076Z,24
2023-04-01T22:18:53.017Z,20
2023-04-01T22:21:23.330Z,24
2023-04-01T22:23:53.843Z,24
2023-04-01T22:26:24.754Z,24
2023-04-01T22:28:55.305Z,28
2023-04-01T22:31:29.762Z,24
2023-04-01T22:34:00.324Z,24
2023-04-01T22:36:29.104Z,25
2023-04-01T22:39:01.507Z,28
2023-04-01T22:41:40.960Z,27
2023-04-01T22:44:10.911Z,28
2023-04-01T22:46:41.794Z,28
2023-04-01T22:49:12.196Z,28
2023-04-01T22:51:42.294Z,28
2023-04-01T22:54:12.535Z,29
2023-04-01T22:56:43.054Z,28
2023-04-01T22:59:13.296Z,28
2023-04-01T23:01:45.317Z,28
2023-04-01T23:04:13.375Z,28
2023-04-01T23:06:45.270Z,29
2023-04-01T23:09:16.525Z,28
2023-04-01T23:11:46.693Z,28
2023-04-01T23:14:17.661Z,32
2023-04-01T23:16:47.815Z,28
2023-04-01T23:19:18.280Z,28
2023-04-01T23:21:48.889Z,32
2023-04-01T23:24:18.892Z,24
2023-04-01T23:26:48.985Z,28
2023-04-01T23:29:19.179Z,28
2023-04-01T23:31:50.840Z,28
2023-04-01T23:34:21.283Z,29
2023-04-01T23:36:52.432Z,32
2023-04-01T23:39:22.682Z,28
2023-04-01T23:41:52.844Z,28
2023-04-01T23:44:23.135Z,30
2023-04-01T23:46:54.094Z,29
2023-04-01T23:49:24.462Z,25
2023-04-01T23:51:54.506Z,24
2023-04-01T23:54:24.670Z,28
2023-04-01T23:59:30.345Z,28
